Time;durP1;ratioP1;P1;durP2;ratioP2;P2;SDS_P1;SDS_P2;PMS_P1;PMS_P2;Temp;Humidity;BMP_temperature;BMP_pressure;BME280_temperature;BME280_humidity;BME280_pressure;Samples;Min_cycle;Max_cycle;Signal;HPM_P1;HPM_P2
2021/09/05 00:01:06;;;;;;;22.02;11.73;;;;;;;17.90;55.99;101880.28;4987999;28;114504;-64
2021/09/05 00:03:34;;;;;;;20.80;12.13;;;;;;;17.89;55.77;101881.25;4970715;28;114300;-64
2021/09/05 00:06:01;;;;;;;20.15;11.27;;;;;;;17.88;55.72;101887.56;4966506;28;124908;-64
2021/09/05 00:08:28;;;;;;;21.38;12.48;;;;;;;17.87;55.84;101888.50;4962575;28;124184;-64
2021/09/05 00:10:55;;;;;;;20.40;12.02;;;;;;;17.84;56.04;101883.31;4970543;28;114089;-65
2021/09/05 00:13:23;;;;;;;20.90;12.32;;;;;;;17.83;55.91;101892.28;4969691;28;114356;-66
2021/09/05 00:15:50;;;;;;;21.60;11.93;;;;;;;17.81;55.97;101886.16;4968335;28;124289;-66
2021/09/05 00:18:17;;;;;;;20.40;11.43;;;;;;;17.80;55.75;101885.31;4964465;28;124038;-66
2021/09/05 00:20:44;;;;;;;18.98;12.05;;;;;;;17.79;55.96;101890.75;4967171;28;115163;-66
2021/09/05 00:23:13;;;;;;;23.65;13.07;;;;;;;17.77;55.95;101887.31;4971629;28;113919;-66
2021/09/05 00:25:41;;;;;;;22.30;12.02;;;;;;;17.74;55.89;101884.78;4971011;28;124410;-66
2021/09/05 00:28:08;;;;;;;20.38;12.25;;;;;;;17.70;55.76;101886.78;4968409;28;123891;-66
2021/09/05 00:30:35;;;;;;;22.90;12.65;;;;;;;17.67;56.07;101887.84;4969823;28;114310;-66
2021/09/05 00:33:07;;;;;;;18.90;11.88;;;;;;;17.64;56.02;101885.31;4966248;28;113510;-66
2021/09/05 00:35:35;;;;;;;22.85;12.18;;;;;;;17.60;56.23;101891.81;4972172;28;124763;-66
2021/09/05 00:38:05;;;;;;;21.13;11.85;;;;;;;17.55;56.13;101891.22;4960647;28;124146;-66
2021/09/05 00:40:32;;;;;;;21.90;11.95;;;;;;;17.53;56.13;101895.81;4957535;28;115430;-66
2021/09/05 00:42:59;;;;;;;21.85;11.63;;;;;;;17.50;56.24;101891.50;4964004;28;115090;-66
2021/09/05 00:45:26;;;;;;;20.17;12.15;;;;;;;17.49;56.29;101891.56;4971563;28;124411;-66
2021/09/05 00:47:53;;;;;;;20.95;11.80;;;;;;;17.47;56.16;101897.00;4968500;28;124426;-66
2021/09/05 00:50:21;;;;;;;22.08;11.93;;;;;;;17.45;56.38;101892.72;4967589;28;113822;-64
2021/09/05 00:52:48;;;;;;;21.98;11.65;;;;;;;17.42;56.52;101882.16;4968949;28;114276;-64
2021/09/05 00:55:15;;;;;;;22.88;12.00;;;;;;;17.39;56.36;101882.34;4963781;28;124412;-64
2021/09/05 00:57:45;;;;;;;20.55;11.25;;;;;;;17.39;56.44;101887.72;4968159;28;124133;-63
2021/09/05 01:00:13;;;;;;;27.00;11.82;;;;;;;17.37;56.41;101886.94;4965726;28;114587;-64
2021/09/05 01:02:42;;;;;;;24.02;12.25;;;;;;;17.35;56.49;101886.13;4970746;28;113757;-64
2021/09/05 01:05:11;;;;;;;21.02;11.63;;;;;;;17.32;56.44;101888.03;4969139;28;124462;-64
2021/09/05 01:07:39;;;;;;;21.83;11.95;;;;;;;17.31;56.61;101886.34;4963946;28;124700;-64
2021/09/05 01:10:12;;;;;;;21.85;12.60;;;;;;;17.30;56.71;101883.75;4965634;28;115130;-64
2021/09/05 01:12:40;;;;;;;19.92;12.15;;;;;;;17.28;56.77;101886.50;4969029;28;114275;-64
2021/09/05 01:15:08;;;;;;;22.63;11.85;;;;;;;17.26;56.62;101883.03;4965773;28;124593;-65
2021/09/05 01:17:37;;;;;;;20.27;11.65;;;;;;;17.24;56.63;101879.59;4967143;28;123207;-64
2021/09/05 01:20:31;;;;;;;20.30;11.20;;;;;;;17.22;56.66;101889.53;4966277;28;113480;-65
2021/09/05 01:23:30;;;;;;;21.83;11.63;;;;;;;17.20;56.64;101894.09;4968550;28;113888;-64
2021/09/05 01:26:39;;;;;;;22.42;11.70;;;;;;;17.14;56.60;101886.44;4965490;28;124146;-64
2021/09/05 01:29:35;;;;;;;23.25;11.10;;;;;;;17.13;56.56;101887.38;4944868;28;123603;-64
2021/09/05 01:32:21;;;;;;;;;;;;;;;17.08;56.38;101889.44;4968487;28;116501;-64
2021/09/05 01:35:22;;;;;;;18.58;10.95;;;;;;;17.06;56.45;101892.19;4979918;28;114860;-65
2021/09/05 01:38:08;;;;;;;18.88;11.00;;;;;;;17.02;56.63;101889.78;4969007;28;124951;-65
2021/09/05 01:40:54;;;;;;;23.05;12.13;;;;;;;17.00;56.70;101889.00;4964684;28;124764;-65
2021/09/05 01:43:41;;;;;;;21.20;11.73;;;;;;;16.98;56.63;101893.56;4965796;28;114765;-65
2021/09/05 01:46:27;;;;;;;19.30;11.32;;;;;;;16.95;56.77;101883.88;4965408;28;115503;-64
2021/09/05 01:49:12;;;;;;;21.70;10.80;;;;;;;16.91;56.57;101883.22;4968119;28;125107;-65
2021/09/05 01:51:58;;;;;;;;;;;;;;;16.86;56.41;101885.28;4966589;28;124950;-64
2021/09/05 01:54:44;;;;;;;19.95;11.15;;;;;;;16.85;56.54;101883.53;4987171;28;114988;-64
2021/09/05 01:57:37;;;;;;;23.63;11.73;;;;;;;16.82;56.95;101889.06;4971757;28;113055;-65
2021/09/05 02:00:37;;;;;;;21.63;11.73;;;;;;;16.79;56.85;101883.84;4962097;28;124900;-65
2021/09/05 02:03:14;;;;;;;22.02;11.45;;;;;;;16.78;56.88;101881.25;4963822;28;123672;-65
2021/09/05 02:05:55;;;;;;;18.20;10.80;;;;;;;16.78;56.88;101892.81;4990322;28;113881;-65
2021/09/05 02:08:57;;;;;;;19.77;10.82;;;;;;;16.77;56.95;101890.22;4973958;28;114109;-65
2021/09/05 02:11:48;;;;;;;22.33;11.10;;;;;;;16.76;56.87;101889.34;4980951;28;124758;-65
2021/09/05 02:14:53;;;;;;;19.65;10.98;;;;;;;16.73;56.68;101892.22;4968812;28;125168;-65
2021/09/05 02:17:43;;;;;;;18.05;10.60;;;;;;;16.72;57.00;101887.78;4973416;28;114940;-65
2021/09/05 02:20:19;;;;;;;20.00;10.82;;;;;;;16.69;57.01;101887.97;4965160;28;113211;-65
2021/09/05 02:23:04;;;;;;;20.35;11.13;;;;;;;16.66;57.02;101888.13;4968818;28;124309;-65
2021/09/05 02:25:48;;;;;;;19.63;10.50;;;;;;;16.65;57.09;101894.41;4972343;28;123958;-65
2021/09/05 02:28:44;;;;;;;17.95;10.45;;;;;;;16.62;57.25;101897.28;4961272;28;115754;-65
2021/09/05 02:31:33;;;;;;;21.05;10.93;;;;;;;16.60;57.04;101899.16;4970531;28;114663;-65
2021/09/05 02:34:27;;;;;;;20.60;10.63;;;;;;;16.57;57.12;101899.31;4968075;28;125461;-65
2021/09/05 02:37:11;;;;;;;22.88;10.57;;;;;;;16.55;57.03;101902.94;4969075;28;123099;-65
2021/09/05 02:39:57;;;;;;;21.63;10.90;;;;;;;16.49;57.07;101908.59;4972735;28;114922;-65
2021/09/05 02:42:42;;;;;;;18.90;10.75;;;;;;;16.46;56.97;101903.44;4974850;28;114902;-65
2021/09/05 02:45:28;;;;;;;19.88;10.65;;;;;;;16.43;56.88;101908.94;4973138;28;124746;-65
2021/09/05 02:48:18;;;;;;;20.27;10.98;;;;;;;16.39;56.83;101907.38;4948994;28;124667;-63
2021/09/05 02:51:14;;;;;;;22.23;11.00;;;;;;;16.36;56.73;101907.53;4966449;28;115359;-64
2021/09/05 02:54:07;;;;;;;20.38;10.43;;;;;;;16.31;56.97;101898.88;4972129;28;113084;-64
2021/09/05 02:57:00;;;;;;;19.90;10.68;;;;;;;16.26;57.00;101899.13;4983093;28;123983;-66
2021/09/05 02:59:53;;;;;;;20.40;11.05;;;;;;;16.24;57.20;101902.84;4969140;28;123064;-65
2021/09/05 03:02:38;;;;;;;20.77;11.07;;;;;;;16.22;57.24;101910.03;4973150;28;115070;-64
2021/09/05 03:05:34;;;;;;;20.55;10.73;;;;;;;16.19;57.18;101911.09;4968549;28;114894;-64
2021/09/05 03:08:19;;;;;;;23.48;10.98;;;;;;;16.14;57.33;101908.66;4969534;28;125345;-64
2021/09/05 03:11:05;;;;;;;20.70;11.05;;;;;;;16.12;57.18;101899.84;4983012;28;124724;-64
2021/09/05 03:13:55;;;;;;;21.58;10.93;;;;;;;16.09;57.31;101900.00;4958113;28;113488;-64
2021/09/05 03:16:48;;;;;;;21.13;11.15;;;;;;;16.08;57.34;101900.06;4960178;28;114785;-64
2021/09/05 03:19:34;;;;;;;20.20;10.98;;;;;;;16.03;57.23;101900.31;4963621;28;124875;-65
2021/09/05 03:22:19;;;;;;;19.52;11.13;;;;;;;15.97;57.30;101895.28;4970679;28;124622;-64
2021/09/05 03:25:09;;;;;;;19.95;10.73;;;;;;;15.95;57.37;101897.16;4968753;28;114787;-64
2021/09/05 03:28:05;;;;;;;;;;;;;;;15.92;57.04;101892.00;4969449;28;115690;-65
2021/09/05 03:30:57;;;;;;;22.27;10.60;;;;;;;15.90;57.17;101897.41;4972201;28;124449;-64
2021/09/05 03:33:30;;;;;;;21.15;10.15;;;;;;;15.88;57.40;101895.72;4985642;28;124422;-64
2021/09/05 03:36:16;;;;;;;20.98;10.82;;;;;;;15.86;57.50;101897.63;4970984;28;114988;-64
2021/09/05 03:39:01;;;;;;;19.83;10.27;;;;;;;15.85;57.60;101901.25;4968084;28;113213;-64
2021/09/05 03:41:46;;;;;;;;;;;;;;;15.83;57.41;101909.34;4970395;28;125296;-65
2021/09/05 03:44:30;;;;;;;18.30;9.55;;;;;;;15.84;57.53;101904.84;4970746;28;124382;-64
2021/09/05 03:47:18;;;;;;;18.90;10.10;;;;;;;15.83;57.50;101903.13;4986363;22;115423;-72
2021/09/05 03:50:18;;;;;;;18.58;9.73;;;;;;;15.82;57.63;101912.94;4970847;28;113092;-72
2021/09/05 03:52:48;;;;;;;19.63;10.10;;;;;;;15.81;57.63;101915.72;4970921;28;123067;-72
2021/09/05 03:55:20;;;;;;;17.55;9.43;;;;;;;15.81;57.58;101915.72;4970692;28;123939;-72
2021/09/05 03:57:48;;;;;;;21.98;10.77;;;;;;;15.80;57.67;101913.97;4970516;28;113575;-72
2021/09/05 04:00:16;;;;;;;19.08;9.98;;;;;;;15.77;57.64;101915.84;4970099;28;113598;-72
2021/09/05 04:02:45;;;;;;;21.08;10.32;;;;;;;15.77;57.63;101915.84;4970609;28;123819;-72
2021/09/05 04:05:15;;;;;;;18.20;9.95;;;;;;;15.74;57.59;101918.66;4969485;28;122635;-71
2021/09/05 04:07:50;;;;;;;20.55;10.57;;;;;;;15.74;57.58;101915.13;4962849;28;113182;-72
2021/09/05 04:10:19;;;;;;;18.13;9.68;;;;;;;15.70;57.63;101914.38;4953737;28;113501;-72
2021/09/05 04:12:46;;;;;;;20.77;10.82;;;;;;;15.67;57.82;101914.56;4971101;28;124695;-72
2021/09/05 04:15:13;;;;;;;18.38;10.30;;;;;;;15.63;57.79;101906.75;4962592;28;122566;-71
2021/09/05 04:17:40;;;;;;;21.20;10.82;;;;;;;15.60;57.85;101902.44;4962238;28;114269;-72
2021/09/05 04:20:07;;;;;;;20.05;10.85;;;;;;;15.58;58.06;101901.66;4968433;28;114969;-72
2021/09/05 04:22:34;;;;;;;22.20;10.05;;;;;;;15.57;58.14;101907.91;4969245;28;124137;-71
2021/09/05 04:25:03;;;;;;;18.65;9.98;;;;;;;15.55;58.40;101909.81;4968537;28;123946;-72
2021/09/05 04:27:31;;;;;;;20.42;10.27;;;;;;;15.54;58.21;101902.75;4970760;28;114836;-72
2021/09/05 04:29:58;;;;;;;21.58;10.20;;;;;;;15.54;58.35;101908.09;4970972;28;114045;-72
2021/09/05 04:32:25;;;;;;;20.65;10.02;;;;;;;15.53;58.21;101911.69;4970533;28;124793;-72
2021/09/05 04:34:53;;;;;;;21.42;11.07;;;;;;;15.53;58.48;101909.03;4986412;28;122812;-72
2021/09/05 04:37:20;;;;;;;23.40;10.88;;;;;;;15.53;58.33;101911.69;4970928;28;114986;-72
2021/09/05 04:39:47;;;;;;;19.20;10.25;;;;;;;15.53;58.31;101917.03;4967010;28;113743;-71
2021/09/05 04:42:14;;;;;;;18.75;10.27;;;;;;;15.51;58.37;101919.78;4960654;28;123127;-72
2021/09/05 04:44:41;;;;;;;21.13;9.70;;;;;;;15.50;58.37;101917.16;4965464;28;124558;-72
2021/09/05 04:47:08;;;;;;;19.15;9.90;;;;;;;15.51;58.56;101924.25;4961459;28;114608;-72
2021/09/05 04:49:35;;;;;;;20.00;10.32;;;;;;;15.51;58.49;101934.94;4969534;28;113991;-71
2021/09/05 04:52:03;;;;;;;19.63;10.00;;;;;;;15.50;58.51;101934.06;4967785;28;123102;-72
2021/09/05 04:54:30;;;;;;;18.63;9.98;;;;;;;15.50;58.38;101928.72;4968153;28;123779;-72
2021/09/05 04:56:57;;;;;;;19.58;10.07;;;;;;;15.50;58.33;101927.84;4964812;28;115029;-72
2021/09/05 04:59:24;;;;;;;22.30;10.85;;;;;;;15.48;58.43;101932.41;4968288;28;114749;-72
2021/09/05 05:01:51;;;;;;;17.50;9.45;;;;;;;15.47;58.42;101930.69;4968371;28;124005;-71
2021/09/05 05:04:19;;;;;;;19.90;9.82;;;;;;;15.44;58.32;101933.50;4975608;28;123748;-72
2021/09/05 05:06:46;;;;;;;17.17;9.20;;;;;;;15.43;58.27;101929.09;4979857;28;114849;-72
2021/09/05 05:09:15;;;;;;;19.42;10.00;;;;;;;15.42;58.42;101930.03;4976827;28;114464;-72
2021/09/05 05:11:43;;;;;;;21.23;10.95;;;;;;;15.39;58.47;101936.41;4970906;28;123842;-72
2021/09/05 05:14:11;;;;;;;19.02;9.77;;;;;;;15.37;58.40;101933.78;4967805;28;123440;-72
2021/09/05 05:16:39;;;;;;;22.38;10.45;;;;;;;15.37;58.57;101943.63;4961082;28;114362;-72
2021/09/05 05:19:06;;;;;;;17.90;9.82;;;;;;;15.36;58.40;101947.22;4966288;28;114054;-72
2021/09/05 05:21:35;;;;;;;19.77;10.52;;;;;;;15.35;58.50;101950.81;4967278;28;123376;-72
2021/09/05 05:24:02;;;;;;;19.90;9.63;;;;;;;15.35;58.66;101951.69;4969846;28;123625;-72
2021/09/05 05:26:29;;;;;;;20.63;9.77;;;;;;;15.36;58.69;101948.06;4969297;28;113971;-72
2021/09/05 05:28:57;;;;;;;17.75;10.57;;;;;;;15.36;58.72;101950.72;4968884;28;113763;-71
2021/09/05 05:31:24;;;;;;;19.25;9.63;;;;;;;15.37;58.52;101957.81;4965794;28;124022;-71
2021/09/05 05:33:52;;;;;;;19.85;9.90;;;;;;;15.36;58.56;101958.75;4969437;28;124081;-72
2021/09/05 05:36:19;;;;;;;19.10;9.60;;;;;;;15.38;58.67;101961.34;4970452;28;114906;-72
2021/09/05 05:38:46;;;;;;;18.33;9.20;;;;;;;15.37;58.71;101957.81;4970137;28;113890;-72
2021/09/05 05:41:14;;;;;;;17.50;9.75;;;;;;;15.37;58.82;101960.50;4969277;28;124343;-73
2021/09/05 05:43:41;;;;;;;16.88;9.55;;;;;;;15.38;58.88;101956.88;4966592;28;124660;-73
2021/09/05 05:46:08;;;;;;;20.20;9.60;;;;;;;15.38;58.81;101956.88;4967384;28;114604;-73
2021/09/05 05:48:36;;;;;;;16.83;8.68;;;;;;;15.40;58.93;101953.28;4969825;28;114330;-73
2021/09/05 05:51:03;;;;;;;17.35;9.27;;;;;;;15.42;58.96;101967.41;4969900;28;123817;-73
2021/09/05 05:53:31;;;;;;;17.67;9.43;;;;;;;15.42;59.04;101959.41;4982482;28;124216;-73
2021/09/05 05:55:58;;;;;;;20.73;10.05;;;;;;;15.43;58.88;101958.47;4964807;28;116123;-73
2021/09/05 05:58:26;;;;;;;19.58;10.45;;;;;;;15.45;59.21;101961.94;4967876;28;115269;-73
2021/09/05 06:01:08;;;;;;;19.95;9.77;;;;;;;15.46;59.36;101963.66;4965678;28;124161;-72
2021/09/05 06:03:38;;;;;;;21.83;10.20;;;;;;;15.48;59.38;101961.75;4962758;28;123680;-72
2021/09/05 06:06:06;;;;;;;19.15;10.25;;;;;;;15.49;59.49;101952.84;4966368;28;114057;-73
2021/09/05 06:08:33;;;;;;;20.55;10.73;;;;;;;15.51;59.68;101954.47;4961714;28;114033;-73
2021/09/05 06:11:00;;;;;;;21.13;10.68;;;;;;;15.54;59.73;101961.50;4960741;28;125935;-73
2021/09/05 06:13:27;;;;;;;18.90;9.95;;;;;;;15.57;59.80;101966.66;4963397;28;123763;-73
2021/09/05 06:15:55;;;;;;;18.08;10.20;;;;;;;15.61;59.94;101960.25;4962709;28;114271;-73
2021/09/05 06:18:22;;;;;;;22.15;10.45;;;;;;;15.66;60.19;101960.88;4966815;28;113801;-72
2021/09/05 06:20:49;;;;;;;19.25;9.75;;;;;;;15.71;60.19;101969.56;4966969;28;123662;-72
2021/09/05 06:23:16;;;;;;;22.88;10.55;;;;;;;15.74;60.08;101961.41;4966930;28;123743;-73
2021/09/05 06:25:44;;;;;;;18.92;9.65;;;;;;;15.82;60.34;101970.84;4965421;28;114432;-73
2021/09/05 06:28:11;;;;;;;21.20;10.38;;;;;;;15.88;60.33;101967.88;4970012;28;114082;-72
2021/09/05 06:30:38;;;;;;;18.45;9.95;;;;;;;15.94;60.56;101975.59;4965245;28;123774;-73
2021/09/05 06:33:05;;;;;;;23.25;10.70;;;;;;;16.02;60.68;101977.91;4970305;28;123793;-73
2021/09/05 06:35:32;;;;;;;18.58;9.70;;;;;;;16.07;60.75;101982.06;4962917;28;114282;-73
2021/09/05 06:37:59;;;;;;;23.52;10.18;;;;;;;16.13;60.78;101979.06;4967880;28;113901;-74
2021/09/05 06:40:26;;;;;;;19.77;10.23;;;;;;;16.22;60.72;101971.53;4964154;28;124071;-73
2021/09/05 06:42:53;;;;;;;19.38;9.80;;;;;;;16.31;61.00;101973.72;4969078;28;124211;-73
2021/09/05 06:45:20;;;;;;;18.67;10.10;;;;;;;16.42;60.85;101976.72;4970088;28;115301;-73
2021/09/05 06:47:47;;;;;;;19.08;9.88;;;;;;;16.53;61.01;101974.34;4970480;28;114231;-73
2021/09/05 06:50:15;;;;;;;20.17;9.82;;;;;;;16.66;60.94;101981.75;4969497;28;122722;-74
2021/09/05 06:52:42;;;;;;;20.83;10.07;;;;;;;16.79;60.96;101980.16;4971704;28;123673;-73
2021/09/05 06:55:09;;;;;;;22.45;9.85;;;;;;;16.91;61.01;101978.66;4973395;28;114959;-73
2021/09/05 06:57:37;;;;;;;20.48;9.82;;;;;;;17.05;60.99;101981.47;4973964;28;113935;-74
2021/09/05 07:00:04;;;;;;;18.45;9.32;;;;;;;17.19;60.83;101978.03;4972557;28;124649;-73
2021/09/05 07:02:32;;;;;;;17.65;9.52;;;;;;;17.34;60.70;101986.19;4972201;28;123147;-73
2021/09/05 07:05:00;;;;;;;18.20;9.57;;;;;;;17.45;60.57;101989.13;4973092;28;114550;-73
2021/09/05 07:07:42;;;;;;;18.55;9.13;;;;;;;17.58;60.29;101982.13;4983984;28;113857;-73
2021/09/05 07:10:11;;;;;;;16.83;9.10;;;;;;;17.68;60.42;101986.00;4971813;28;122875;-73
2021/09/05 07:12:41;;;;;;;20.55;8.90;;;;;;;17.82;60.06;101989.72;4960195;28;124570;-74
2021/09/05 07:15:09;;;;;;;17.17;8.57;;;;;;;17.93;60.23;101984.63;4972816;28;114194;-73
2021/09/05 07:17:36;;;;;;;15.18;7.80;;;;;;;18.08;60.10;101994.50;4973171;28;113900;-73
2021/09/05 07:20:04;;;;;;;16.73;8.43;;;;;;;18.20;59.73;101992.91;4970958;28;123886;-74
2021/09/05 07:22:33;;;;;;;14.07;8.27;;;;;;;18.31;59.40;102000.31;4969083;28;125071;-73
2021/09/05 07:25:07;;;;;;;16.23;8.63;;;;;;;18.42;59.47;102003.22;4964435;28;114646;-73
2021/09/05 07:27:34;;;;;;;14.25;7.93;;;;;;;18.53;58.97;102009.75;4973613;28;113663;-73
2021/09/05 07:30:02;;;;;;;15.90;8.23;;;;;;;18.63;58.84;102008.25;4960759;28;123788;-74
2021/09/05 07:32:30;;;;;;;15.90;8.13;;;;;;;18.70;58.43;102012.28;4971226;28;123848;-73
2021/09/05 07:34:57;;;;;;;13.98;8.05;;;;;;;18.78;58.37;102014.50;4972543;28;115290;-73
2021/09/05 07:37:26;;;;;;;15.73;8.48;;;;;;;18.88;58.43;102017.53;4972805;28;114175;-74
2021/09/05 07:39:53;;;;;;;16.10;8.10;;;;;;;18.99;58.50;102017.72;4972643;28;124149;-74
2021/09/05 07:42:20;;;;;;;19.15;7.88;;;;;;;19.12;58.04;102018.69;4972341;28;123884;-74
2021/09/05 07:44:47;;;;;;;13.52;8.15;;;;;;;19.19;57.79;102028.09;4972744;28;114084;-73
2021/09/05 07:47:14;;;;;;;13.45;7.90;;;;;;;19.29;57.66;102030.19;4972905;28;113517;-74
2021/09/05 07:49:41;;;;;;;17.38;7.68;;;;;;;19.36;57.66;102027.00;4972519;28;123994;-74
2021/09/05 07:52:08;;;;;;;13.95;7.75;;;;;;;19.45;57.19;102030.94;4971671;28;123873;-74
2021/09/05 07:54:35;;;;;;;15.32;7.70;;;;;;;19.54;57.35;102030.38;4968527;28;114496;-74
2021/09/05 07:57:02;;;;;;;14.95;7.88;;;;;;;19.61;57.14;102031.69;4963526;28;113807;-74
2021/09/05 07:59:29;;;;;;;14.10;7.28;;;;;;;19.73;57.23;102029.22;4962434;28;124170;-73
2021/09/05 08:01:56;;;;;;;12.85;7.43;;;;;;;19.87;57.11;102037.22;4967618;28;123136;-74
2021/09/05 08:04:24;;;;;;;14.43;7.45;;;;;;;19.99;56.80;102039.13;4971880;28;114423;-74
2021/09/05 08:06:51;;;;;;;14.77;7.35;;;;;;;20.10;56.65;102045.59;4961551;28;113931;-74
2021/09/05 08:09:18;;;;;;;14.25;7.55;;;;;;;20.17;55.89;102036.16;4972246;28;123782;-74
2021/09/05 08:11:45;;;;;;;13.95;7.45;;;;;;;20.28;55.82;102036.31;4990820;28;123274;-74
2021/09/05 08:14:12;;;;;;;15.90;7.90;;;;;;;20.34;55.21;102041.31;4999949;28;112973;-74
2021/09/05 08:16:39;;;;;;;13.13;7.05;;;;;;;20.40;55.47;102040.88;4989149;28;114529;-75
2021/09/05 08:19:06;;;;;;;14.65;7.07;;;;;;;20.51;55.52;102052.75;4980332;28;125043;-75
2021/09/05 08:21:33;;;;;;;13.07;6.93;;;;;;;20.65;55.20;102055.41;4974351;28;124341;-74
2021/09/05 08:24:00;;;;;;;13.00;6.72;;;;;;;20.76;55.17;102052.81;4973626;28;115090;-74
2021/09/05 08:26:28;;;;;;;12.57;7.45;;;;;;;20.89;54.91;102054.66;4973372;28;115557;-74
2021/09/05 08:28:55;;;;;;;13.77;7.15;;;;;;;21.00;54.73;102054.78;4966829;28;124685;-74
2021/09/05 08:31:22;;;;;;;12.57;7.40;;;;;;;21.10;54.67;102052.31;4985035;28;122731;-74
2021/09/05 08:33:49;;;;;;;13.07;7.20;;;;;;;21.20;54.58;102051.53;4972576;28;114224;-74
2021/09/05 08:36:16;;;;;;;12.85;7.20;;;;;;;21.33;54.45;102061.47;4984371;28;112834;-74
2021/09/05 08:38:43;;;;;;;14.38;7.20;;;;;;;21.45;54.08;102060.59;4984816;28;123105;-74
2021/09/05 08:41:10;;;;;;;12.02;7.50;;;;;;;21.53;53.69;102069.00;4969760;28;123143;-73
2021/09/05 08:43:38;;;;;;;16.15;7.80;;;;;;;21.61;53.35;102075.69;4972196;28;114983;-74
2021/09/05 08:46:05;;;;;;;13.00;7.13;;;;;;;21.64;53.51;102075.44;4968836;28;114056;-74
2021/09/05 08:48:34;;;;;;;13.10;7.35;;;;;;;21.71;53.30;102071.34;4964757;28;123883;-74
2021/09/05 08:51:01;;;;;;;12.85;7.50;;;;;;;21.78;53.27;102070.78;4986827;28;123770;-75
2021/09/05 08:53:28;;;;;;;13.18;7.72;;;;;;;21.86;53.12;102070.22;4965291;28;114183;-74
2021/09/05 08:55:55;;;;;;;13.90;7.57;;;;;;;21.93;52.87;102071.50;4970190;28;113924;-74
2021/09/05 08:58:23;;;;;;;15.23;7.15;;;;;;;22.00;52.77;102071.03;4960101;28;124227;-74
2021/09/05 09:00:50;;;;;;;14.48;8.13;;;;;;;22.07;52.72;102072.31;4965245;28;123650;-72
2021/09/05 09:03:19;;;;;;;13.90;7.78;;;;;;;22.12;52.55;102072.81;4959367;28;114217;-72
2021/09/05 09:05:52;;;;;;;11.98;7.25;;;;;;;22.20;52.41;102075.81;4966065;28;113815;-71
2021/09/05 09:08:21;;;;;;;12.95;7.95;;;;;;;22.28;52.42;102081.53;4967244;28;124601;-72
2021/09/05 09:11:03;;;;;;;12.13;6.70;;;;;;;22.38;51.96;102087.09;4964652;28;123660;-72
2021/09/05 09:13:31;;;;;;;14.57;7.45;;;;;;;22.43;51.76;102084.91;4957507;28;115800;-72
2021/09/05 09:16:05;;;;;;;12.25;7.47;;;;;;;22.48;51.76;102088.13;4970907;28;114704;-72
2021/09/05 09:18:34;;;;;;;11.80;7.20;;;;;;;22.57;51.47;102075.75;4971299;28;124060;-72
2021/09/05 09:21:05;;;;;;;12.85;7.57;;;;;;;22.63;51.41;102088.78;4958199;28;123876;-72
2021/09/05 09:23:35;;;;;;;13.30;7.47;;;;;;;22.73;51.49;102080.84;4950986;28;112899;-72
2021/09/05 09:26:09;;;;;;;13.05;7.35;;;;;;;22.82;51.61;102087.38;4967475;28;113743;-72
2021/09/05 09:28:43;;;;;;;15.90;7.53;;;;;;;22.92;51.51;102085.66;4970932;28;123920;-72
2021/09/05 09:31:25;;;;;;;14.38;7.90;;;;;;;23.01;51.14;102084.97;4968685;28;124664;-72
2021/09/05 09:33:55;;;;;;;14.13;7.70;;;;;;;23.07;50.82;102084.50;4970946;28;116732;-72
2021/09/05 09:36:25;;;;;;;14.15;7.70;;;;;;;23.14;51.25;102076.78;4967973;28;114060;-72
2021/09/05 09:39:01;;;;;;;13.30;7.43;;;;;;;23.25;51.18;102086.75;4965475;28;123886;-72
2021/09/05 09:41:42;;;;;;;14.73;7.75;;;;;;;23.35;50.96;102071.50;4970510;28;124113;-72
2021/09/05 09:44:13;;;;;;;12.45;7.38;;;;;;;23.42;50.79;102067.34;4967691;28;114848;-72
2021/09/05 09:49:49;;;;;;;12.60;7.50;;;;;;;23.55;50.44;102059.09;4950255;28;123886;-67
2021/09/05 09:52:17;;;;;;;13.27;7.60;;;;;;;23.64;50.36;102065.59;4939505;28;123937;-67
2021/09/05 09:54:45;;;;;;;14.63;7.80;;;;;;;23.74;50.08;102061.16;4952655;28;114015;-67
2021/09/05 09:57:12;;;;;;;13.77;7.88;;;;;;;23.82;49.96;102064.13;4945355;28;114735;-67
2021/09/05 09:59:39;;;;;;;13.52;7.65;;;;;;;23.89;49.96;102065.34;4928971;28;123981;-67
2021/09/05 10:02:16;;;;;;;14.18;7.80;;;;;;;23.99;49.49;102064.59;4929320;28;124607;-67
2021/09/05 10:04:46;;;;;;;12.13;7.45;;;;;;;24.06;49.27;102063.09;4940643;28;115469;-67
2021/09/05 10:07:16;;;;;;;14.98;7.75;;;;;;;24.11;48.95;102058.16;4958682;28;114783;-65
2021/09/05 10:09:46;;;;;;;12.32;7.13;;;;;;;24.17;49.05;102063.06;4943223;28;124070;-66
2021/09/05 10:12:18;;;;;;;13.93;7.82;;;;;;;24.25;48.53;102060.56;4941239;28;123927;-67
2021/09/05 10:14:51;;;;;;;13.05;7.63;;;;;;;24.31;48.47;102058.34;4951804;28;113702;-66
2021/09/05 10:17:20;;;;;;;13.70;8.20;;;;;;;24.35;48.49;102062.50;4952362;28;114605;-66
2021/09/05 10:19:50;;;;;;;14.45;7.57;;;;;;;24.39;48.70;102063.94;4944286;28;124810;-67
2021/09/05 10:22:23;;;;;;;13.63;7.78;;;;;;;24.48;48.71;102060.47;4950869;28;123829;-67
2021/09/05 10:24:53;;;;;;;13.65;8.25;;;;;;;24.55;47.76;102060.84;4953263;28;114400;-67
2021/09/05 10:27:35;;;;;;;13.43;7.28;;;;;;;24.58;47.68;102055.16;4952409;28;114266;-67
2021/09/05 10:30:05;;;;;;;13.27;7.55;;;;;;;24.61;47.31;102055.75;4937568;28;124014;-67
2021/09/05 10:32:44;;;;;;;13.32;7.70;;;;;;;24.65;47.73;102057.19;4950889;28;123793;-67
2021/09/05 10:35:30;;;;;;;13.55;7.35;;;;;;;24.76;47.77;102058.16;4965021;28;114669;-67
2021/09/05 10:38:18;;;;;;;14.77;7.57;;;;;;;24.85;47.56;102057.34;4951764;28;114479;-67
2021/09/05 10:40:54;;;;;;;13.68;8.15;;;;;;;24.93;47.18;102049.41;4948285;28;122997;-68
2021/09/05 10:43:23;;;;;;;13.10;7.47;;;;;;;25.00;46.34;102056.00;4945922;28;124125;-67
2021/09/05 10:45:54;;;;;;;13.50;7.43;;;;;;;25.02;46.11;102054.03;4946094;28;114685;-67
2021/09/05 10:48:32;;;;;;;12.95;7.43;;;;;;;25.06;46.94;102050.03;4951302;28;114436;-67
2021/09/05 10:51:17;;;;;;;13.10;7.57;;;;;;;25.16;46.42;102052.81;4952498;28;124010;-67
2021/09/05 10:53:51;;;;;;;13.30;8.38;;;;;;;25.23;46.31;102045.88;4948010;28;124840;-67
2021/09/05 10:56:31;;;;;;;13.55;7.38;;;;;;;25.28;45.32;102048.19;4945478;28;116110;-67
2021/09/05 10:59:06;;;;;;;11.82;7.03;;;;;;;25.33;46.17;102045.91;4932777;28;115423;-67
2021/09/05 11:01:37;;;;;;;12.40;7.22;;;;;;;25.41;45.81;102043.41;4935832;28;124136;-67
2021/09/05 11:04:21;;;;;;;11.77;7.63;;;;;;;25.51;45.52;102037.16;4946641;28;123902;-67
2021/09/05 11:06:53;;;;;;;14.43;7.85;;;;;;;25.57;45.07;102042.00;4964249;28;114980;-67
2021/09/05 11:11:54;;;;;;;14.88;8.10;;;;;;;25.63;44.64;102041.44;4935724;28;124115;-67
2021/09/05 11:14:34;;;;;;;12.77;7.55;;;;;;;25.67;45.21;102042.88;4950826;28;124232;-67
2021/09/05 11:17:19;;;;;;;16.15;8.20;;;;;;;25.78;44.75;102042.78;4946505;28;114955;-67
2021/09/05 11:19:55;;;;;;;13.55;8.10;;;;;;;25.86;44.71;102041.22;4950705;28;114157;-67
2021/09/05 11:22:28;;;;;;;14.55;7.95;;;;;;;25.91;44.77;102044.38;4943638;28;123934;-67
2021/09/05 11:25:19;;;;;;;11.75;7.18;;;;;;;25.96;44.29;102042.13;4948468;28;124115;-67
2021/09/05 11:27:52;;;;;;;12.73;7.53;;;;;;;26.00;44.19;102038.16;4947452;28;114477;-67
2021/09/05 11:30:21;;;;;;;11.75;7.53;;;;;;;26.07;44.38;102039.31;4947183;28;114135;-66
2021/09/05 11:32:56;;;;;;;13.25;7.80;;;;;;;26.17;43.93;102044.72;4947219;28;125020;-67
2021/09/05 11:35:23;;;;;;;13.57;7.82;;;;;;;26.26;43.64;102037.56;4943959;28;123948;-67
2021/09/05 11:37:55;;;;;;;13.80;8.10;;;;;;;26.33;43.64;102038.72;4950163;28;113459;-67
2021/09/05 11:40:22;;;;;;;11.80;7.25;;;;;;;26.39;43.73;102044.44;4940466;28;114169;-67